sensor_id;sensor_type;location;lat;lon;timestamp;P1;durP1;ratioP1;P2;durP2;ratioP2
10586;SDS011;5341;47.606;7.576;2023-06-22T00:01:20;10.52;;;5.05;;
10586;SDS011;5341;47.606;7.576;2023-06-22T00:03:48;9.13;;;5.03;;
10586;SDS011;5341;47.606;7.576;2023-06-22T00:06:16;7.60;;;4.60;;
10586;SDS011;5341;47.606;7.576;2023-06-22T00:08:43;8.43;;;4.88;;
10586;SDS011;5341;47.606;7.576;2023-06-22T00:11:12;11.50;;;5.30;;
10586;SDS011;5341;47.606;7.576;2023-06-22T00:13:40;9.65;;;4.65;;
10586;SDS011;5341;47.606;7.576;2023-06-22T00:16:07;10.60;;;5.00;;
10586;SDS011;5341;47.606;7.576;2023-06-22T00:18:34;10.27;;;4.95;;
10586;SDS011;5341;47.606;7.576;2023-06-22T00:21:02;8.65;;;4.93;;
10586;SDS011;5341;47.606;7.576;2023-06-22T00:23:30;8.23;;;5.20;;
10586;SDS011;5341;47.606;7.576;2023-06-22T00:25:59;10.70;;;5.03;;
10586;SDS011;5341;47.606;7.576;2023-06-22T00:28:28;9.75;;;5.72;;
10586;SDS011;5341;47.606;7.576;2023-06-22T00:30:56;8.82;;;5.03;;
10586;SDS011;5341;47.606;7.576;2023-06-22T00:33:24;8.70;;;5.28;;
10586;SDS011;5341;47.606;7.576;2023-06-22T00:35:53;11.15;;;5.28;;
10586;SDS011;5341;47.606;7.576;2023-06-22T00:38:21;6.93;;;5.05;;
10586;SDS011;5341;47.606;7.576;2023-06-22T00:40:48;8.90;;;4.97;;
10586;SDS011;5341;47.606;7.576;2023-06-22T00:43:16;9.00;;;4.85;;
10586;SDS011;5341;47.606;7.576;2023-06-22T00:45:45;10.73;;;5.00;;
10586;SDS011;5341;47.606;7.576;2023-06-22T00:48:12;11.80;;;4.80;;
10586;SDS011;5341;47.606;7.576;2023-06-22T00:50:41;9.18;;;4.70;;
10586;SDS011;5341;47.606;7.576;2023-06-22T00:53:09;7.85;;;4.85;;
10586;SDS011;5341;47.606;7.576;2023-06-22T00:55:38;12.63;;;5.00;;
10586;SDS011;5341;47.606;7.576;2023-06-22T00:58:10;9.10;;;4.93;;
10586;SDS011;5341;47.606;7.576;2023-06-22T01:00:40;7.95;;;5.00;;
10586;SDS011;5341;47.606;7.576;2023-06-22T01:03:09;10.25;;;5.22;;
10586;SDS011;5341;47.606;7.576;2023-06-22T01:05:38;10.85;;;5.20;;
10586;SDS011;5341;47.606;7.576;2023-06-22T01:08:08;10.10;;;4.97;;
10586;SDS011;5341;47.606;7.576;2023-06-22T01:10:44;10.63;;;5.10;;
10586;SDS011;5341;47.606;7.576;2023-06-22T01:13:29;10.98;;;5.28;;
10586;SDS011;5341;47.606;7.576;2023-06-22T01:16:03;9.45;;;5.22;;
10586;SDS011;5341;47.606;7.576;2023-06-22T01:18:35;12.00;;;5.22;;
10586;SDS011;5341;47.606;7.576;2023-06-22T01:21:06;7.47;;;5.13;;
10586;SDS011;5341;47.606;7.576;2023-06-22T01:23:42;11.23;;;5.75;;
10586;SDS011;5341;47.606;7.576;2023-06-22T01:26:21;11.55;;;5.25;;
10586;SDS011;5341;47.606;7.576;2023-06-22T01:28:57;11.48;;;5.22;;
10586;SDS011;5341;47.606;7.576;2023-06-22T01:31:27;9.90;;;5.10;;
10586;SDS011;5341;47.606;7.576;2023-06-22T01:33:58;10.30;;;5.32;;
10586;SDS011;5341;47.606;7.576;2023-06-22T01:36:28;9.85;;;5.22;;
10586;SDS011;5341;47.606;7.576;2023-06-22T01:38:57;8.77;;;5.13;;
10586;SDS011;5341;47.606;7.576;2023-06-22T01:41:26;8.75;;;5.78;;
10586;SDS011;5341;47.606;7.576;2023-06-22T01:43:57;10.95;;;5.80;;
10586;SDS011;5341;47.606;7.576;2023-06-22T01:46:25;14.27;;;6.22;;
10586;SDS011;5341;47.606;7.576;2023-06-22T01:48:53;10.57;;;5.82;;
10586;SDS011;5341;47.606;7.576;2023-06-22T01:51:22;9.23;;;5.35;;
10586;SDS011;5341;47.606;7.576;2023-06-22T01:53:49;9.68;;;5.47;;
10586;SDS011;5341;47.606;7.576;2023-06-22T01:56:18;9.18;;;5.70;;
10586;SDS011;5341;47.606;7.576;2023-06-22T01:58:50;7.55;;;4.95;;
10586;SDS011;5341;47.606;7.576;2023-06-22T02:01:26;9.65;;;5.30;;
10586;SDS011;5341;47.606;7.576;2023-06-22T02:04:01;11.73;;;5.70;;
10586;SDS011;5341;47.606;7.576;2023-06-22T02:06:33;10.65;;;5.03;;
10586;SDS011;5341;47.606;7.576;2023-06-22T02:09:06;10.35;;;5.70;;
10586;SDS011;5341;47.606;7.576;2023-06-22T02:11:37;7.13;;;4.82;;
10586;SDS011;5341;47.606;7.576;2023-06-22T02:14:08;10.77;;;6.07;;
10586;SDS011;5341;47.606;7.576;2023-06-22T02:16:38;8.00;;;5.50;;
10586;SDS011;5341;47.606;7.576;2023-06-22T02:19:05;9.73;;;5.65;;
10586;SDS011;5341;47.606;7.576;2023-06-22T02:21:33;8.32;;;5.35;;
10586;SDS011;5341;47.606;7.576;2023-06-22T02:24:01;9.48;;;6.18;;
10586;SDS011;5341;47.606;7.576;2023-06-22T02:26:29;10.48;;;5.68;;
10586;SDS011;5341;47.606;7.576;2023-06-22T02:28:57;12.05;;;6.22;;
10586;SDS011;5341;47.606;7.576;2023-06-22T02:31:24;7.43;;;5.80;;
10586;SDS011;5341;47.606;7.576;2023-06-22T02:33:57;8.00;;;5.88;;
10586;SDS011;5341;47.606;7.576;2023-06-22T02:36:24;11.35;;;6.60;;
10586;SDS011;5341;47.606;7.576;2023-06-22T02:38:53;11.40;;;6.63;;
10586;SDS011;5341;47.606;7.576;2023-06-22T02:41:22;10.43;;;6.05;;
10586;SDS011;5341;47.606;7.576;2023-06-22T02:43:50;8.00;;;5.93;;
10586;SDS011;5341;47.606;7.576;2023-06-22T02:46:18;7.85;;;6.03;;
10586;SDS011;5341;47.606;7.576;2023-06-22T02:48:47;10.40;;;5.80;;
10586;SDS011;5341;47.606;7.576;2023-06-22T02:51:17;10.02;;;6.43;;
10586;SDS011;5341;47.606;7.576;2023-06-22T02:53:44;8.85;;;6.25;;
10586;SDS011;5341;47.606;7.576;2023-06-22T02:56:14;10.55;;;6.15;;
10586;SDS011;5341;47.606;7.576;2023-06-22T02:58:43;14.23;;;6.38;;
10586;SDS011;5341;47.606;7.576;2023-06-22T03:01:11;9.63;;;6.03;;
10586;SDS011;5341;47.606;7.576;2023-06-22T03:03:41;7.60;;;6.13;;
10586;SDS011;5341;47.606;7.576;2023-06-22T03:06:09;9.88;;;6.13;;
10586;SDS011;5341;47.606;7.576;2023-06-22T03:08:44;7.45;;;6.45;;
10586;SDS011;5341;47.606;7.576;2023-06-22T03:11:13;7.13;;;5.78;;
10586;SDS011;5341;47.606;7.576;2023-06-22T03:13:41;8.95;;;5.78;;
10586;SDS011;5341;47.606;7.576;2023-06-22T03:16:08;9.50;;;6.15;;
10586;SDS011;5341;47.606;7.576;2023-06-22T03:18:36;13.07;;;5.78;;
10586;SDS011;5341;47.606;7.576;2023-06-22T03:21:07;10.60;;;5.88;;
10586;SDS011;5341;47.606;7.576;2023-06-22T03:23:34;11.32;;;6.45;;
10586;SDS011;5341;47.606;7.576;2023-06-22T03:26:04;12.27;;;6.20;;
10586;SDS011;5341;47.606;7.576;2023-06-22T03:28:35;13.20;;;6.30;;
10586;SDS011;5341;47.606;7.576;2023-06-22T03:31:04;7.93;;;5.88;;
10586;SDS011;5341;47.606;7.576;2023-06-22T03:33:33;10.40;;;6.70;;
10586;SDS011;5341;47.606;7.576;2023-06-22T03:36:02;8.52;;;5.90;;
10586;SDS011;5341;47.606;7.576;2023-06-22T03:38:30;7.43;;;5.90;;
10586;SDS011;5341;47.606;7.576;2023-06-22T03:40:58;9.25;;;6.03;;
10586;SDS011;5341;47.606;7.576;2023-06-22T03:43:30;9.57;;;6.20;;
10586;SDS011;5341;47.606;7.576;2023-06-22T03:45:58;13.02;;;6.38;;
10586;SDS011;5341;47.606;7.576;2023-06-22T03:48:26;13.13;;;6.00;;
10586;SDS011;5341;47.606;7.576;2023-06-22T03:50:53;11.55;;;5.90;;
10586;SDS011;5341;47.606;7.576;2023-06-22T03:53:22;10.98;;;6.25;;
10586;SDS011;5341;47.606;7.576;2023-06-22T03:55:50;9.40;;;6.45;;
10586;SDS011;5341;47.606;7.576;2023-06-22T03:58:19;9.45;;;6.18;;
10586;SDS011;5341;47.606;7.576;2023-06-22T04:00:48;9.93;;;6.05;;
10586;SDS011;5341;47.606;7.576;2023-06-22T04:03:17;9.55;;;6.22;;
10586;SDS011;5341;47.606;7.576;2023-06-22T04:05:46;11.85;;;6.35;;
10586;SDS011;5341;47.606;7.576;2023-06-22T04:08:15;10.10;;;6.18;;
10586;SDS011;5341;47.606;7.576;2023-06-22T04:10:42;11.50;;;6.40;;
10586;SDS011;5341;47.606;7.576;2023-06-22T04:13:10;10.20;;;5.95;;
10586;SDS011;5341;47.606;7.576;2023-06-22T04:15:38;13.35;;;6.35;;
10586;SDS011;5341;47.606;7.576;2023-06-22T04:18:07;12.50;;;6.38;;
10586;SDS011;5341;47.606;7.576;2023-06-22T04:20:35;9.07;;;6.07;;
10586;SDS011;5341;47.606;7.576;2023-06-22T04:23:02;10.95;;;6.65;;
10586;SDS011;5341;47.606;7.576;2023-06-22T04:25:30;7.68;;;5.97;;
10586;SDS011;5341;47.606;7.576;2023-06-22T04:27:57;10.85;;;5.28;;
10586;SDS011;5341;47.606;7.576;2023-06-22T04:30:29;10.55;;;5.88;;
10586;SDS011;5341;47.606;7.576;2023-06-22T04:33:13;12.48;;;5.28;;
10586;SDS011;5341;47.606;7.576;2023-06-22T04:35:41;10.35;;;5.55;;
10586;SDS011;5341;47.606;7.576;2023-06-22T04:38:08;9.98;;;5.60;;
10586;SDS011;5341;47.606;7.576;2023-06-22T04:40:36;11.52;;;5.95;;
10586;SDS011;5341;47.606;7.576;2023-06-22T04:43:04;14.45;;;6.13;;
10586;SDS011;5341;47.606;7.576;2023-06-22T04:45:31;11.00;;;6.00;;
10586;SDS011;5341;47.606;7.576;2023-06-22T04:48:01;9.02;;;5.75;;
10586;SDS011;5341;47.606;7.576;2023-06-22T04:50:29;9.52;;;5.35;;
10586;SDS011;5341;47.606;7.576;2023-06-22T04:52:57;11.55;;;5.60;;
10586;SDS011;5341;47.606;7.576;2023-06-22T04:55:24;9.13;;;5.82;;
10586;SDS011;5341;47.606;7.576;2023-06-22T04:57:52;8.93;;;5.53;;
10586;SDS011;5341;47.606;7.576;2023-06-22T05:00:19;10.98;;;5.93;;
10586;SDS011;5341;47.606;7.576;2023-06-22T05:02:48;9.25;;;5.70;;
10586;SDS011;5341;47.606;7.576;2023-06-22T05:05:16;10.68;;;6.43;;
10586;SDS011;5341;47.606;7.576;2023-06-22T05:07:45;11.25;;;5.78;;
10586;SDS011;5341;47.606;7.576;2023-06-22T05:10:16;11.27;;;6.43;;
10586;SDS011;5341;47.606;7.576;2023-06-22T05:12:43;9.20;;;5.80;;
10586;SDS011;5341;47.606;7.576;2023-06-22T05:15:10;11.02;;;6.65;;
10586;SDS011;5341;47.606;7.576;2023-06-22T05:17:38;8.85;;;6.05;;
10586;SDS011;5341;47.606;7.576;2023-06-22T05:20:08;9.55;;;6.10;;
10586;SDS011;5341;47.606;7.576;2023-06-22T05:22:36;15.00;;;6.90;;
10586;SDS011;5341;47.606;7.576;2023-06-22T05:25:08;13.80;;;7.70;;
10586;SDS011;5341;47.606;7.576;2023-06-22T05:27:36;12.70;;;7.65;;
10586;SDS011;5341;47.606;7.576;2023-06-22T05:30:05;10.35;;;7.57;;
10586;SDS011;5341;47.606;7.576;2023-06-22T05:32:33;16.77;;;9.45;;
10586;SDS011;5341;47.606;7.576;2023-06-22T05:35:01;10.32;;;8.00;;
10586;SDS011;5341;47.606;7.576;2023-06-22T05:37:29;14.93;;;8.13;;
10586;SDS011;5341;47.606;7.576;2023-06-22T05:39:56;11.10;;;7.10;;
10586;SDS011;5341;47.606;7.576;2023-06-22T05:42:25;10.13;;;7.00;;
10586;SDS011;5341;47.606;7.576;2023-06-22T05:44:52;9.07;;;6.63;;
10586;SDS011;5341;47.606;7.576;2023-06-22T05:47:20;9.43;;;6.85;;
10586;SDS011;5341;47.606;7.576;2023-06-22T05:49:48;12.07;;;6.93;;
10586;SDS011;5341;47.606;7.576;2023-06-22T05:52:15;9.10;;;7.03;;
10586;SDS011;5341;47.606;7.576;2023-06-22T05:54:43;13.80;;;8.00;;
10586;SDS011;5341;47.606;7.576;2023-06-22T05:57:10;9.20;;;7.22;;
10586;SDS011;5341;47.606;7.576;2023-06-22T05:59:39;9.45;;;7.03;;
10586;SDS011;5341;47.606;7.576;2023-06-22T06:02:06;16.33;;;8.70;;
10586;SDS011;5341;47.606;7.576;2023-06-22T06:04:34;15.20;;;10.23;;
10586;SDS011;5341;47.606;7.576;2023-06-22T06:07:01;11.55;;;8.75;;
10586;SDS011;5341;47.606;7.576;2023-06-22T06:09:29;10.40;;;7.93;;
10586;SDS011;5341;47.606;7.576;2023-06-22T06:11:56;15.85;;;9.98;;
10586;SDS011;5341;47.606;7.576;2023-06-22T06:14:24;14.18;;;10.77;;
10586;SDS011;5341;47.606;7.576;2023-06-22T06:16:53;21.15;;;11.30;;
10586;SDS011;5341;47.606;7.576;2023-06-22T06:19:20;15.32;;;11.45;;
10586;SDS011;5341;47.606;7.576;2023-06-22T06:21:47;16.40;;;11.27;;
10586;SDS011;5341;47.606;7.576;2023-06-22T06:24:15;17.52;;;12.00;;
10586;SDS011;5341;47.606;7.576;2023-06-22T06:26:43;18.83;;;12.48;;
10586;SDS011;5341;47.606;7.576;2023-06-22T06:29:10;19.95;;;12.18;;
10586;SDS011;5341;47.606;7.576;2023-06-22T06:31:37;16.30;;;10.63;;
10586;SDS011;5341;47.606;7.576;2023-06-22T06:34:06;13.98;;;9.55;;
10586;SDS011;5341;47.606;7.576;2023-06-22T06:36:34;17.83;;;11.02;;
10586;SDS011;5341;47.606;7.576;2023-06-22T06:39:02;14.30;;;11.23;;
10586;SDS011;5341;47.606;7.576;2023-06-22T06:41:31;13.10;;;9.20;;
10586;SDS011;5341;47.606;7.576;2023-06-22T06:43:59;14.07;;;9.15;;
10586;SDS011;5341;47.606;7.576;2023-06-22T06:46:30;17.35;;;9.80;;
10586;SDS011;5341;47.606;7.576;2023-06-22T06:49:00;15.30;;;10.93;;
10586;SDS011;5341;47.606;7.576;2023-06-22T06:51:30;13.70;;;9.98;;
10586;SDS011;5341;47.606;7.576;2023-06-22T06:53:57;11.65;;;9.82;;
10586;SDS011;5341;47.606;7.576;2023-06-22T06:56:25;12.98;;;10.43;;
10586;SDS011;5341;47.606;7.576;2023-06-22T06:58:53;15.77;;;10.38;;
10586;SDS011;5341;47.606;7.576;2023-06-22T07:01:21;14.70;;;11.57;;
10586;SDS011;5341;47.606;7.576;2023-06-22T07:03:48;12.60;;;11.25;;
10586;SDS011;5341;47.606;7.576;2023-06-22T07:06:16;20.75;;;13.10;;
10586;SDS011;5341;47.606;7.576;2023-06-22T07:08:45;16.35;;;11.02;;
10586;SDS011;5341;47.606;7.576;2023-06-22T07:11:12;21.73;;;11.40;;
10586;SDS011;5341;47.606;7.576;2023-06-22T07:13:40;17.08;;;12.10;;
10586;SDS011;5341;47.606;7.576;2023-06-22T07:16:07;17.88;;;11.40;;
10586;SDS011;5341;47.606;7.576;2023-06-22T07:18:34;18.10;;;12.05;;
10586;SDS011;5341;47.606;7.576;2023-06-22T07:21:02;16.65;;;11.10;;
10586;SDS011;5341;47.606;7.576;2023-06-22T07:23:31;15.95;;;11.05;;
10586;SDS011;5341;47.606;7.576;2023-06-22T07:26:00;17.10;;;10.52;;
10586;SDS011;5341;47.606;7.576;2023-06-22T07:28:28;14.88;;;10.27;;
10586;SDS011;5341;47.606;7.576;2023-06-22T07:30:56;12.98;;;9.40;;
10586;SDS011;5341;47.606;7.576;2023-06-22T07:33:23;12.40;;;9.27;;
10586;SDS011;5341;47.606;7.576;2023-06-22T07:35:51;17.20;;;12.23;;
10586;SDS011;5341;47.606;7.576;2023-06-22T07:38:18;13.77;;;9.32;;
10586;SDS011;5341;47.606;7.576;2023-06-22T07:40:46;12.05;;;9.68;;
10586;SDS011;5341;47.606;7.576;2023-06-22T07:43:15;15.00;;;9.10;;
10586;SDS011;5341;47.606;7.576;2023-06-22T07:45:47;18.35;;;10.32;;
10586;SDS011;5341;47.606;7.576;2023-06-22T07:48:17;14.57;;;10.40;;
10586;SDS011;5341;47.606;7.576;2023-06-22T07:50:46;16.80;;;10.00;;
10586;SDS011;5341;47.606;7.576;2023-06-22T07:53:14;13.43;;;9.40;;
10586;SDS011;5341;47.606;7.576;2023-06-22T07:55:41;11.82;;;8.52;;
10586;SDS011;5341;47.606;7.576;2023-06-22T07:58:09;18.83;;;10.63;;
10586;SDS011;5341;47.606;7.576;2023-06-22T08:00:38;12.10;;;8.70;;
10586;SDS011;5341;47.606;7.576;2023-06-22T08:03:05;12.45;;;8.57;;
10586;SDS011;5341;47.606;7.576;2023-06-22T08:05:33;13.13;;;10.27;;
10586;SDS011;5341;47.606;7.576;2023-06-22T08:08:01;18.88;;;10.25;;
10586;SDS011;5341;47.606;7.576;2023-06-22T08:10:28;12.63;;;8.15;;
10586;SDS011;5341;47.606;7.576;2023-06-22T08:12:55;12.55;;;8.43;;
10586;SDS011;5341;47.606;7.576;2023-06-22T08:15:23;11.50;;;8.55;;
10586;SDS011;5341;47.606;7.576;2023-06-22T08:17:52;12.02;;;7.93;;
10586;SDS011;5341;47.606;7.576;2023-06-22T08:20:19;14.02;;;7.60;;
10586;SDS011;5341;47.606;7.576;2023-06-22T08:22:47;12.43;;;7.22;;
10586;SDS011;5341;47.606;7.576;2023-06-22T08:25:14;16.83;;;7.15;;
10586;SDS011;5341;47.606;7.576;2023-06-22T08:27:44;10.40;;;7.15;;
10586;SDS011;5341;47.606;7.576;2023-06-22T08:30:12;12.52;;;6.72;;
10586;SDS011;5341;47.606;7.576;2023-06-22T08:32:40;16.20;;;6.97;;
10586;SDS011;5341;47.606;7.576;2023-06-22T08:35:09;11.68;;;6.65;;
10586;SDS011;5341;47.606;7.576;2023-06-22T08:37:37;15.00;;;7.47;;
10586;SDS011;5341;47.606;7.576;2023-06-22T08:40:05;12.25;;;6.90;;
10586;SDS011;5341;47.606;7.576;2023-06-22T08:42:35;16.75;;;6.65;;
10586;SDS011;5341;47.606;7.576;2023-06-22T08:45:03;15.85;;;6.72;;
10586;SDS011;5341;47.606;7.576;2023-06-22T08:47:31;9.05;;;6.13;;
10586;SDS011;5341;47.606;7.576;2023-06-22T08:49:59;15.05;;;6.75;;
10586;SDS011;5341;47.606;7.576;2023-06-22T08:52:29;13.48;;;6.20;;
10586;SDS011;5341;47.606;7.576;2023-06-22T08:54:56;9.88;;;6.45;;
10586;SDS011;5341;47.606;7.576;2023-06-22T08:57:24;14.30;;;6.72;;
10586;SDS011;5341;47.606;7.576;2023-06-22T08:59:52;9.15;;;6.43;;
10586;SDS011;5341;47.606;7.576;2023-06-22T09:02:23;10.55;;;6.68;;
10586;SDS011;5341;47.606;7.576;2023-06-22T09:04:51;13.75;;;6.38;;
10586;SDS011;5341;47.606;7.576;2023-06-22T09:07:21;16.75;;;6.95;;
10586;SDS011;5341;47.606;7.576;2023-06-22T09:09:51;10.07;;;6.60;;
10586;SDS011;5341;47.606;7.576;2023-06-22T09:12:19;11.40;;;6.47;;
10586;SDS011;5341;47.606;7.576;2023-06-22T09:14:51;11.15;;;6.30;;
10586;SDS011;5341;47.606;7.576;2023-06-22T09:17:18;10.05;;;6.28;;
10586;SDS011;5341;47.606;7.576;2023-06-22T09:19:46;14.45;;;6.72;;
10586;SDS011;5341;47.606;7.576;2023-06-22T09:22:14;11.15;;;6.40;;
10586;SDS011;5341;47.606;7.576;2023-06-22T09:24:41;15.00;;;6.90;;
10586;SDS011;5341;47.606;7.576;2023-06-22T09:27:10;13.43;;;6.47;;
10586;SDS011;5341;47.606;7.576;2023-06-22T09:29:38;11.77;;;7.10;;
10586;SDS011;5341;47.606;7.576;2023-06-22T09:32:06;11.18;;;5.80;;
10586;SDS011;5341;47.606;7.576;2023-06-22T09:34:34;12.90;;;6.15;;
10586;SDS011;5341;47.606;7.576;2023-06-22T09:37:01;12.27;;;6.32;;
10586;SDS011;5341;47.606;7.576;2023-06-22T09:39:28;9.63;;;5.93;;
10586;SDS011;5341;47.606;7.576;2023-06-22T09:41:57;11.63;;;6.13;;
10586;SDS011;5341;47.606;7.576;2023-06-22T09:44:27;12.13;;;7.00;;
10586;SDS011;5341;47.606;7.576;2023-06-22T09:46:54;12.60;;;7.32;;
10586;SDS011;5341;47.606;7.576;2023-06-22T09:49:21;14.57;;;7.47;;
10586;SDS011;5341;47.606;7.576;2023-06-22T09:51:49;9.95;;;6.78;;
10586;SDS011;5341;47.606;7.576;2023-06-22T09:54:17;15.52;;;6.28;;
10586;SDS011;5341;47.606;7.576;2023-06-22T09:56:53;12.60;;;6.35;;
10586;SDS011;5341;47.606;7.576;2023-06-22T09:59:20;10.93;;;6.40;;
10586;SDS011;5341;47.606;7.576;2023-06-22T10:01:49;11.82;;;6.20;;
10586;SDS011;5341;47.606;7.576;2023-06-22T10:04:17;14.40;;;5.85;;
10586;SDS011;5341;47.606;7.576;2023-06-22T10:06:44;9.95;;;6.03;;
10586;SDS011;5341;47.606;7.576;2023-06-22T10:09:12;12.80;;;6.00;;
10586;SDS011;5341;47.606;7.576;2023-06-22T10:11:39;14.50;;;6.70;;
10586;SDS011;5341;47.606;7.576;2023-06-22T10:14:06;13.30;;;6.38;;
10586;SDS011;5341;47.606;7.576;2023-06-22T10:16:36;17.73;;;6.55;;
10586;SDS011;5341;47.606;7.576;2023-06-22T10:19:12;12.55;;;6.35;;
10586;SDS011;5341;47.606;7.576;2023-06-22T10:21:39;8.77;;;6.13;;
10586;SDS011;5341;47.606;7.576;2023-06-22T10:24:07;12.57;;;6.25;;
10586;SDS011;5341;47.606;7.576;2023-06-22T10:26:35;13.25;;;6.93;;
10586;SDS011;5341;47.606;7.576;2023-06-22T10:29:03;13.40;;;6.93;;
10586;SDS011;5341;47.606;7.576;2023-06-22T10:31:31;13.45;;;6.68;;
10586;SDS011;5341;47.606;7.576;2023-06-22T10:33:59;11.02;;;6.30;;
10586;SDS011;5341;47.606;7.576;2023-06-22T10:36:27;12.98;;;6.35;;
10586;SDS011;5341;47.606;7.576;2023-06-22T10:38:55;11.38;;;5.95;;
10586;SDS011;5341;47.606;7.576;2023-06-22T10:41:24;9.88;;;6.32;;
10586;SDS011;5341;47.606;7.576;2023-06-22T10:43:54;12.40;;;6.70;;
10586;SDS011;5341;47.606;7.576;2023-06-22T10:46:23;11.55;;;7.03;;
10586;SDS011;5341;47.606;7.576;2023-06-22T10:48:51;12.50;;;6.60;;
10586;SDS011;5341;47.606;7.576;2023-06-22T10:51:20;10.13;;;6.35;;
10586;SDS011;5341;47.606;7.576;2023-06-22T10:53:49;11.75;;;6.68;;
10586;SDS011;5341;47.606;7.576;2023-06-22T10:56:17;10.75;;;6.18;;
10586;SDS011;5341;47.606;7.576;2023-06-22T10:58:45;12.15;;;6.07;;
10586;SDS011;5341;47.606;7.576;2023-06-22T11:01:13;10.57;;;5.97;;
10586;SDS011;5341;47.606;7.576;2023-06-22T11:03:40;9.65;;;5.85;;
10586;SDS011;5341;47.606;7.576;2023-06-22T11:06:08;12.60;;;6.43;;
10586;SDS011;5341;47.606;7.576;2023-06-22T11:08:35;10.15;;;6.63;;
10586;SDS011;5341;47.606;7.576;2023-06-22T11:11:04;12.00;;;6.63;;
10586;SDS011;5341;47.606;7.576;2023-06-22T11:13:31;9.95;;;6.53;;
10586;SDS011;5341;47.606;7.576;2023-06-22T11:15:59;11.70;;;6.00;;
10586;SDS011;5341;47.606;7.576;2023-06-22T11:18:26;11.05;;;6.43;;
10586;SDS011;5341;47.606;7.576;2023-06-22T11:20:53;11.35;;;6.38;;
10586;SDS011;5341;47.606;7.576;2023-06-22T11:23:21;12.10;;;7.22;;
10586;SDS011;5341;47.606;7.576;2023-06-22T11:25:48;16.58;;;9.07;;
10586;SDS011;5341;47.606;7.576;2023-06-22T11:28:17;10.07;;;7.18;;
10586;SDS011;5341;47.606;7.576;2023-06-22T11:30:45;12.85;;;7.15;;
10586;SDS011;5341;47.606;7.576;2023-06-22T11:33:12;14.68;;;7.30;;
10586;SDS011;5341;47.606;7.576;2023-06-22T11:35:40;12.55;;;6.68;;
10586;SDS011;5341;47.606;7.576;2023-06-22T11:38:07;13.52;;;6.45;;
10586;SDS011;5341;47.606;7.576;2023-06-22T11:40:35;11.73;;;6.93;;
10586;SDS011;5341;47.606;7.576;2023-06-22T11:43:02;14.63;;;7.78;;
10586;SDS011;5341;47.606;7.576;2023-06-22T11:45:31;11.05;;;6.78;;
10586;SDS011;5341;47.606;7.576;2023-06-22T11:47:59;15.40;;;6.70;;
10586;SDS011;5341;47.606;7.576;2023-06-22T11:50:27;12.02;;;6.40;;
10586;SDS011;5341;47.606;7.576;2023-06-22T11:52:55;15.32;;;6.65;;
10586;SDS011;5341;47.606;7.576;2023-06-22T11:55:23;10.25;;;6.55;;
10586;SDS011;5341;47.606;7.576;2023-06-22T11:57:54;10.65;;;6.43;;
10586;SDS011;5341;47.606;7.576;2023-06-22T12:00:24;10.95;;;6.65;;
10586;SDS011;5341;47.606;7.576;2023-06-22T12:02:52;22.88;;;7.85;;
10586;SDS011;5341;47.606;7.576;2023-06-22T12:05:20;16.10;;;9.00;;
10586;SDS011;5341;47.606;7.576;2023-06-22T12:07:49;15.38;;;9.13;;
10586;SDS011;5341;47.606;7.576;2023-06-22T12:10:17;16.33;;;8.70;;
10586;SDS011;5341;47.606;7.576;2023-06-22T12:12:46;15.80;;;8.40;;
10586;SDS011;5341;47.606;7.576;2023-06-22T12:15:14;21.10;;;8.65;;
10586;SDS011;5341;47.606;7.576;2023-06-22T12:17:41;15.45;;;8.23;;
10586;SDS011;5341;47.606;7.576;2023-06-22T12:20:11;12.88;;;6.80;;
10586;SDS011;5341;47.606;7.576;2023-06-22T12:22:38;11.13;;;7.15;;
10586;SDS011;5341;47.606;7.576;2023-06-22T12:25:06;9.60;;;6.20;;
10586;SDS011;5341;47.606;7.576;2023-06-22T12:27:34;13.63;;;6.80;;
10586;SDS011;5341;47.606;7.576;2023-06-22T12:30:02;14.18;;;6.28;;
10586;SDS011;5341;47.606;7.576;2023-06-22T12:32:30;11.43;;;6.50;;
10586;SDS011;5341;47.606;7.576;2023-06-22T12:34:58;11.80;;;6.25;;
10586;SDS011;5341;47.606;7.576;2023-06-22T12:37:27;12.45;;;6.28;;
10586;SDS011;5341;47.606;7.576;2023-06-22T12:39:54;9.88;;;7.28;;
10586;SDS011;5341;47.606;7.576;2023-06-22T12:42:22;13.05;;;6.50;;
10586;SDS011;5341;47.606;7.576;2023-06-22T12:44:49;12.77;;;6.95;;
10586;SDS011;5341;47.606;7.576;2023-06-22T12:47:17;14.50;;;6.70;;
10586;SDS011;5341;47.606;7.576;2023-06-22T12:49:45;14.82;;;7.05;;
10586;SDS011;5341;47.606;7.576;2023-06-22T12:52:12;11.30;;;6.22;;
10586;SDS011;5341;47.606;7.576;2023-06-22T12:54:42;15.15;;;7.10;;
10586;SDS011;5341;47.606;7.576;2023-06-22T12:57:09;19.73;;;7.57;;
10586;SDS011;5341;47.606;7.576;2023-06-22T12:59:40;9.85;;;6.70;;
10586;SDS011;5341;47.606;7.576;2023-06-22T13:02:07;12.23;;;6.63;;
10586;SDS011;5341;47.606;7.576;2023-06-22T13:04:35;17.30;;;6.70;;
10586;SDS011;5341;47.606;7.576;2023-06-22T13:07:03;11.27;;;5.90;;
10586;SDS011;5341;47.606;7.576;2023-06-22T13:09:31;24.52;;;5.80;;
10586;SDS011;5341;47.606;7.576;2023-06-22T13:12:01;15.57;;;6.13;;
10586;SDS011;5341;47.606;7.576;2023-06-22T13:14:29;14.93;;;5.95;;
10586;SDS011;5341;47.606;7.576;2023-06-22T13:16:56;17.10;;;6.43;;
10586;SDS011;5341;47.606;7.576;2023-06-22T13:19:24;12.02;;;5.63;;
10586;SDS011;5341;47.606;7.576;2023-06-22T13:21:54;14.15;;;5.70;;
10586;SDS011;5341;47.606;7.576;2023-06-22T13:24:21;9.48;;;5.53;;
10586;SDS011;5341;47.606;7.576;2023-06-22T13:26:49;14.10;;;6.25;;
10586;SDS011;5341;47.606;7.576;2023-06-22T13:29:18;11.23;;;5.82;;
10586;SDS011;5341;47.606;7.576;2023-06-22T13:31:45;12.75;;;5.60;;
10586;SDS011;5341;47.606;7.576;2023-06-22T13:34:13;15.80;;;6.18;;
10586;SDS011;5341;47.606;7.576;2023-06-22T13:36:40;12.63;;;5.72;;
10586;SDS011;5341;47.606;7.576;2023-06-22T13:39:07;9.00;;;5.45;;
10586;SDS011;5341;47.606;7.576;2023-06-22T13:41:35;11.45;;;5.68;;
10586;SDS011;5341;47.606;7.576;2023-06-22T13:44:02;13.25;;;5.55;;
10586;SDS011;5341;47.606;7.576;2023-06-22T13:46:32;13.35;;;5.50;;
10586;SDS011;5341;47.606;7.576;2023-06-22T13:48:59;13.45;;;5.95;;
10586;SDS011;5341;47.606;7.576;2023-06-22T13:51:26;15.40;;;6.05;;
10586;SDS011;5341;47.606;7.576;2023-06-22T13:53:54;13.23;;;5.85;;
10586;SDS011;5341;47.606;7.576;2023-06-22T13:56:21;11.40;;;6.10;;
10586;SDS011;5341;47.606;7.576;2023-06-22T13:58:49;16.00;;;5.70;;
10586;SDS011;5341;47.606;7.576;2023-06-22T14:01:16;11.65;;;5.80;;
10586;SDS011;5341;47.606;7.576;2023-06-22T14:03:45;8.30;;;5.60;;
10586;SDS011;5341;47.606;7.576;2023-06-22T14:06:15;11.07;;;5.10;;
10586;SDS011;5341;47.606;7.576;2023-06-22T14:08:43;9.57;;;5.90;;
10586;SDS011;5341;47.606;7.576;2023-06-22T14:11:10;10.23;;;5.40;;
10586;SDS011;5341;47.606;7.576;2023-06-22T14:13:39;12.80;;;6.00;;
10586;SDS011;5341;47.606;7.576;2023-06-22T14:16:08;13.27;;;5.80;;
10586;SDS011;5341;47.606;7.576;2023-06-22T14:18:36;10.57;;;5.78;;
10586;SDS011;5341;47.606;7.576;2023-06-22T14:21:05;9.70;;;5.47;;
10586;SDS011;5341;47.606;7.576;2023-06-22T14:23:32;8.63;;;5.38;;
10586;SDS011;5341;47.606;7.576;2023-06-22T14:26:00;11.60;;;5.43;;
10586;SDS011;5341;47.606;7.576;2023-06-22T14:28:27;14.77;;;6.05;;
10586;SDS011;5341;47.606;7.576;2023-06-22T14:30:59;11.30;;;5.57;;
10586;SDS011;5341;47.606;7.576;2023-06-22T14:33:26;9.30;;;5.40;;
10586;SDS011;5341;47.606;7.576;2023-06-22T14:35:54;9.27;;;5.60;;
10586;SDS011;5341;47.606;7.576;2023-06-22T14:38:23;11.02;;;5.85;;
10586;SDS011;5341;47.606;7.576;2023-06-22T14:40:50;12.20;;;5.90;;
10586;SDS011;5341;47.606;7.576;2023-06-22T14:43:18;9.50;;;5.22;;
10586;SDS011;5341;47.606;7.576;2023-06-22T14:45:45;12.43;;;5.88;;
10586;SDS011;5341;47.606;7.576;2023-06-22T14:48:13;12.85;;;5.68;;
10586;SDS011;5341;47.606;7.576;2023-06-22T14:50:41;11.30;;;5.70;;
10586;SDS011;5341;47.606;7.576;2023-06-22T14:53:08;9.15;;;5.70;;
10586;SDS011;5341;47.606;7.576;2023-06-22T14:55:41;9.45;;;5.28;;
10586;SDS011;5341;47.606;7.576;2023-06-22T14:58:09;11.90;;;5.95;;